createdAt,value
2023-04-20T00:00:34.919Z,69.3077
2023-04-20T00:01:36.338Z,68.3077
2023-04-20T00:02:37.847Z,74.6154
2023-04-20T00:03:39.325Z,72.8462
2023-04-20T00:04:40.679Z,67.2308
2023-04-20T00:05:42.018Z,66.1538
2023-04-20T00:06:43.465Z,68.0769
2023-04-20T00:07:44.875Z,68.3077
2023-04-20T00:08:46.234Z,65.0000
2023-04-20T00:09:47.693Z,69.0769
2023-04-20T00:10:49.143Z,66.0000
2023-04-20T00:11:50.581Z,69.3077
2023-04-20T00:12:52.002Z,64.1538
2023-04-20T00:13:53.460Z,66.5385
2023-04-20T00:14:54.807Z,70.2308
2023-04-20T00:15:56.255Z,69.6923
2023-04-20T00:16:57.787Z,67.3846
2023-04-20T00:17:59.213Z,62.5385
2023-04-20T00:19:00.566Z,67.8462
2023-04-20T00:20:02.008Z,62.3077
2023-04-20T00:21:03.406Z,63.4615
2023-04-20T00:22:04.839Z,63.9231
2023-04-20T00:23:06.265Z,66.7692
2023-04-20T00:24:07.741Z,68.4615
2023-04-20T00:25:09.163Z,62.5385
2023-04-20T00:26:10.538Z,57.6154
2023-04-20T00:27:12.043Z,56.3077
2023-04-20T00:28:13.451Z,61.5385
2023-04-20T00:29:15.023Z,65.3846
2023-04-20T00:30:16.403Z,64.9231
2023-04-20T00:31:17.794Z,65.6923
2023-04-20T00:32:19.157Z,68.7692
2023-04-20T00:33:20.599Z,63.9231
2023-04-20T00:34:22.082Z,63.6154
2023-04-20T00:35:23.478Z,70.9231
2023-04-20T00:36:24.921Z,64.6154
2023-04-20T00:37:26.347Z,65.4615
2023-04-20T00:38:27.803Z,67.5385
2023-04-20T00:39:29.296Z,61.3846
2023-04-20T00:40:30.666Z,63.3077
2023-04-20T00:41:31.980Z,67.0000
2023-04-20T00:42:33.484Z,68.0769
2023-04-20T00:43:34.874Z,67.7692
2023-04-20T00:44:36.386Z,62.3846
2023-04-20T00:45:37.799Z,63.3077
2023-04-20T00:46:39.248Z,67.0769
2023-04-20T00:47:40.691Z,65.3077
2023-04-20T00:48:42.033Z,60.7692
2023-04-20T00:49:43.523Z,60.0769
2023-04-20T00:50:44.950Z,60.7692
2023-04-20T00:51:46.353Z,63.6154
2023-04-20T00:52:47.831Z,64.0769
2023-04-20T00:53:49.227Z,64.0000
2023-04-20T00:54:50.691Z,63.5385
2023-04-20T00:55:52.150Z,59.2308
2023-04-20T00:56:53.606Z,61.0000
2023-04-20T00:57:54.962Z,59.5385
2023-04-20T00:58:56.383Z,64.5385
2023-04-20T00:59:57.909Z,64.3846
2023-04-20T01:00:59.212Z,62.8462
2023-04-20T01:02:00.748Z,69.2308
2023-04-20T01:03:02.117Z,64.6154
2023-04-20T01:04:03.589Z,64.7692
2023-04-20T01:05:04.955Z,61.3846
2023-04-20T01:06:06.394Z,65.1538
2023-04-20T01:07:07.859Z,65.8462
2023-04-20T01:08:09.275Z,64.0769
2023-04-20T01:09:10.659Z,62.6923
2023-04-20T01:10:12.164Z,59.7692
2023-04-20T01:11:13.588Z,59.6154
2023-04-20T01:12:14.962Z,63.5385
2023-04-20T01:13:16.377Z,60.3077
2023-04-20T01:14:17.793Z,60.3077
2023-04-20T01:15:19.318Z,70.0769
2023-04-20T01:16:20.724Z,62.0769
2023-04-20T01:17:22.131Z,61.3846
2023-04-20T01:18:23.586Z,60.1538
2023-04-20T01:19:24.919Z,63.6923
2023-04-20T01:20:26.392Z,65.8462
2023-04-20T01:21:27.864Z,64.2308
2023-04-20T01:22:29.212Z,73.0769
2023-04-20T01:23:30.687Z,69.6154
2023-04-20T01:24:32.161Z,65.9231
2023-04-20T01:25:33.572Z,64.6154
2023-04-20T01:26:35.042Z,63.2308
2023-04-20T01:27:36.392Z,65.0769
2023-04-20T01:28:37.854Z,67.4615
2023-04-20T01:29:39.318Z,68.0000
2023-04-20T01:30:40.735Z,65.3846
2023-04-20T01:31:42.186Z,64.5385
2023-04-20T01:32:43.610Z,56.4615
2023-04-20T01:33:44.997Z,54.0769
2023-04-20T01:34:46.435Z,57.2308
2023-04-20T01:35:47.893Z,60.4615
2023-04-20T01:36:49.240Z,67.6923
2023-04-20T01:37:50.711Z,66.1538
2023-04-20T01:38:52.214Z,63.8462
2023-04-20T01:39:53.708Z,62.4615
2023-04-20T01:40:55.055Z,67.8462
2023-04-20T01:41:56.559Z,61.3846
2023-04-20T01:42:58.005Z,60.7692
2023-04-20T01:43:59.375Z,64.5385
2023-04-20T01:45:00.829Z,61.2308
2023-04-20T01:46:02.220Z,63.7692
2023-04-20T01:47:03.717Z,63.0000
2023-04-20T01:48:05.082Z,62.9231
2023-04-20T01:49:06.542Z,60.5385
2023-04-20T01:50:07.931Z,58.6154
2023-04-20T01:51:09.401Z,58.0000
2023-04-20T01:52:10.838Z,61.8462
2023-04-20T01:53:12.273Z,63.8462
2023-04-20T01:54:13.700Z,64.2308
2023-04-20T01:55:15.220Z,59.0000
2023-04-20T01:56:16.686Z,62.2308
2023-04-20T01:57:18.161Z,66.9231
2023-04-20T01:58:19.515Z,65.6154
2023-04-20T01:59:21.008Z,65.0769
2023-04-20T02:00:22.387Z,62.8462
2023-04-20T02:01:23.820Z,68.5385
2023-04-20T02:02:25.461Z,54.8462
2023-04-20T02:03:26.716Z,55.3846
2023-04-20T02:04:28.135Z,60.8462
2023-04-20T02:05:29.579Z,59.4615
2023-04-20T02:06:30.987Z,60.9231
2023-04-20T02:07:32.515Z,61.3077
2023-04-20T02:08:33.741Z,66.1538
2023-04-20T02:09:35.260Z,65.9231
2023-04-20T02:10:36.711Z,62.6154
2023-04-20T02:11:38.125Z,64.7692
2023-04-20T02:12:39.629Z,62.6154
2023-04-20T02:13:41.049Z,63.9231
2023-04-20T02:14:42.473Z,65.6154
2023-04-20T02:15:43.932Z,63.6923
2023-04-20T02:16:45.327Z,60.6154
2023-04-20T02:17:46.783Z,61.5385
2023-04-20T02:18:48.064Z,59.3077
2023-04-20T02:19:49.555Z,62.5385
2023-04-20T02:20:50.900Z,62.1538
2023-04-20T02:21:52.415Z,58.6923
2023-04-20T02:22:53.951Z,59.6923
2023-04-20T02:23:55.456Z,64.2308
2023-04-20T02:24:56.750Z,62.6923
2023-04-20T02:25:58.173Z,64.6923
2023-04-20T02:26:59.593Z,63.7692
2023-04-20T02:28:01.092Z,61.1538
2023-04-20T02:29:02.475Z,66.4615
2023-04-20T02:30:03.923Z,68.0769
2023-04-20T02:31:05.338Z,60.6923
2023-04-20T02:32:06.656Z,63.6154
2023-04-20T02:33:08.254Z,65.8462
2023-04-20T02:34:09.735Z,62.3846
2023-04-20T02:35:11.020Z,63.5385
2023-04-20T02:36:12.598Z,66.1538
2023-04-20T02:37:13.908Z,58.2308
2023-04-20T02:38:15.391Z,57.3846
2023-04-20T02:39:17.031Z,62.6154
2023-04-20T02:40:18.232Z,62.3077
2023-04-20T02:41:19.647Z,62.0769
2023-04-20T02:42:21.004Z,61.3846
2023-04-20T02:43:22.435Z,64.4615
2023-04-20T02:44:23.938Z,63.7692
2023-04-20T02:45:25.349Z,62.1538
2023-04-20T02:46:26.787Z,55.2308
2023-04-20T02:47:28.234Z,54.5385
2023-04-20T02:48:29.724Z,62.1538
2023-04-20T02:49:31.054Z,58.0769
2023-04-20T02:50:32.482Z,65.8462
2023-04-20T02:51:33.921Z,59.9231
2023-04-20T02:52:35.253Z,62.6923
2023-04-20T02:53:36.799Z,57.0769
2023-04-20T02:54:38.200Z,53.6923
2023-04-20T02:55:39.677Z,57.5385
2023-04-20T02:56:41.061Z,67.6923
2023-04-20T02:57:42.506Z,78.2308
2023-04-20T02:58:43.968Z,86.1538
2023-04-20T02:59:45.342Z,88.5385
2023-04-20T03:00:46.796Z,87.0769
2023-04-20T03:01:48.203Z,82.0000
2023-04-20T03:02:49.830Z,88.2308
2023-04-20T03:03:51.331Z,86.7692
2023-04-20T03:04:52.728Z,84.8462
2023-04-20T03:05:55.181Z,83.3077
2023-04-20T03:06:55.365Z,85.5385
2023-04-20T03:07:56.904Z,87.7692
2023-04-20T03:08:58.248Z,88.8462
2023-04-20T03:09:59.661Z,91.3077
2023-04-20T03:11:01.124Z,86.0000
2023-04-20T03:12:02.541Z,85.3846
2023-04-20T03:13:03.941Z,87.9231
2023-04-20T03:14:05.429Z,92.8462
2023-04-20T03:15:06.802Z,92.8462
2023-04-20T03:16:08.365Z,90.6923
2023-04-20T03:17:09.683Z,92.7692
2023-04-20T03:18:11.010Z,93.1538
2023-04-20T03:19:12.570Z,87.3846
2023-04-20T03:20:13.878Z,93.5385
2023-04-20T03:21:15.459Z,98.6923
2023-04-20T03:22:16.798Z,100.0000
2023-04-20T03:23:18.186Z,98.3846
2023-04-20T03:24:19.672Z,95.6154
2023-04-20T03:25:20.990Z,93.5385
2023-04-20T03:26:22.531Z,93.4615
2023-04-20T03:27:23.985Z,92.6923
2023-04-20T03:28:25.326Z,89.3077
2023-04-20T03:29:26.896Z,95.1538
2023-04-20T03:30:28.249Z,97.3846
2023-04-20T03:31:29.753Z,98.1538
2023-04-20T03:32:32.722Z,95.5385
2023-04-20T03:33:32.564Z,94.6154
2023-04-20T03:34:34.053Z,96.2308
2023-04-20T03:35:35.411Z,102.6154
2023-04-20T03:36:36.817Z,99.0000
2023-04-20T03:37:38.292Z,95.1538
2023-04-20T03:38:39.654Z,96.2308
2023-04-20T03:39:41.157Z,97.6154
2023-04-20T03:40:42.569Z,97.1538
2023-04-20T03:41:44.022Z,98.1538
2023-04-20T03:42:45.359Z,102.4615
2023-04-20T03:43:46.761Z,97.2308
2023-04-20T03:44:48.320Z,99.2308
2023-04-20T03:45:49.739Z,101.3077
2023-04-20T03:46:51.149Z,102.0769
2023-04-20T03:47:52.612Z,103.8462
2023-04-20T03:48:54.034Z,102.3846
2023-04-20T03:49:55.488Z,105.6154
2023-04-20T03:50:56.824Z,99.0000
2023-04-20T03:51:58.326Z,100.6154
2023-04-20T03:52:59.681Z,108.1538
2023-04-20T03:54:01.192Z,103.3077
2023-04-20T03:55:02.603Z,102.8462
2023-04-20T03:56:03.962Z,104.0000
2023-04-20T03:57:05.364Z,103.2308
2023-04-20T03:58:06.897Z,100.6923
2023-04-20T03:59:08.213Z,100.0769
2023-04-20T04:00:09.698Z,99.3846
2023-04-20T04:01:11.118Z,108.0000
2023-04-20T04:02:12.525Z,102.6923
2023-04-20T04:03:14.153Z,106.1538
2023-04-20T04:04:15.541Z,103.6154
2023-04-20T04:05:16.915Z,101.8462
2023-04-20T04:06:18.240Z,102.6154
2023-04-20T04:07:19.632Z,100.2308
2023-04-20T04:08:21.002Z,106.4615
2023-04-20T04:09:22.629Z,105.0000
2023-04-20T04:10:24.013Z,103.1538
2023-04-20T04:11:25.446Z,105.6154
2023-04-20T04:12:26.892Z,103.1538
2023-04-20T04:13:28.203Z,102.3846
2023-04-20T04:14:29.544Z,104.9231
2023-04-20T04:15:31.050Z,109.1538
2023-04-20T04:16:32.620Z,106.0000
2023-04-20T04:17:33.896Z,106.6923
2023-04-20T04:18:35.393Z,102.3846
2023-04-20T04:19:36.821Z,105.6923
2023-04-20T04:20:38.298Z,106.8462
2023-04-20T04:21:39.720Z,105.5385
2023-04-20T04:22:41.013Z,106.3846
2023-04-20T04:23:42.491Z,111.3846
2023-04-20T04:24:43.962Z,114.8462
2023-04-20T04:25:45.459Z,107.5385
2023-04-20T04:26:46.866Z,100.9231
2023-04-20T04:27:48.330Z,96.7692
2023-04-20T04:28:49.563Z,90.7692
2023-04-20T04:29:51.178Z,95.5385
2023-04-20T04:30:52.645Z,93.6154
2023-04-20T04:31:54.198Z,93.0769
2023-04-20T04:32:55.532Z,95.3846
2023-04-20T04:33:56.781Z,94.7692
2023-04-20T04:34:58.152Z,93.6923
2023-04-20T04:35:59.715Z,92.3846
2023-04-20T04:37:01.136Z,97.0000
2023-04-20T04:38:02.541Z,95.6154
2023-04-20T04:39:03.938Z,94.3077
2023-04-20T04:40:05.432Z,93.6154
2023-04-20T04:41:06.875Z,96.4615
2023-04-20T04:42:08.145Z,97.8462
2023-04-20T04:43:09.631Z,97.2308
2023-04-20T04:44:11.156Z,97.6923
2023-04-20T04:45:12.513Z,96.2308
2023-04-20T04:46:14.044Z,97.3077
2023-04-20T04:47:15.380Z,95.6154
2023-04-20T04:48:16.771Z,96.3077
2023-04-20T04:49:18.366Z,102.3846
2023-04-20T04:50:19.606Z,103.0000
2023-04-20T04:51:21.150Z,97.1538
2023-04-20T04:52:22.421Z,94.8462
2023-04-20T04:53:23.957Z,101.0000
2023-04-20T04:54:25.340Z,100.0000
2023-04-20T04:55:26.825Z,103.6923
2023-04-20T04:56:28.243Z,100.3077
2023-04-20T04:57:29.643Z,103.4615
2023-04-20T04:58:31.035Z,108.0000
2023-04-20T04:59:32.486Z,105.0769
2023-04-20T05:00:33.877Z,109.0000
2023-04-20T05:01:35.414Z,113.7692
2023-04-20T05:02:37.245Z,119.0000
2023-04-20T05:03:38.341Z,121.0769
2023-04-20T05:04:39.667Z,121.9231
2023-04-20T05:05:41.056Z,131.7692
2023-04-20T05:06:42.554Z,144.7692
2023-04-20T05:07:43.957Z,137.1538
2023-04-20T05:08:45.347Z,140.7692
2023-04-20T05:09:46.748Z,137.4615
2023-04-20T05:10:48.134Z,141.0769
2023-04-20T05:11:49.605Z,143.5385
2023-04-20T05:12:51.089Z,146.1538
2023-04-20T05:13:52.507Z,144.7692
2023-04-20T05:14:53.889Z,153.6923
2023-04-20T05:15:55.395Z,158.3846
2023-04-20T05:16:56.738Z,150.6154
2023-04-20T05:17:58.186Z,146.4615
2023-04-20T05:18:59.564Z,148.4615
2023-04-20T05:20:01.030Z,153.9231
2023-04-20T05:21:02.470Z,155.7692
2023-04-20T05:22:04.013Z,161.3077
2023-04-20T05:23:05.487Z,164.5385
2023-04-20T05:24:06.754Z,155.8462
2023-04-20T05:25:08.196Z,159.0000
2023-04-20T05:26:09.638Z,159.0769
2023-04-20T05:27:11.026Z,159.5385
2023-04-20T05:28:12.488Z,166.8462
2023-04-20T05:29:13.805Z,171.6154
2023-04-20T05:30:20.315Z,167.2308
2023-04-20T05:31:16.719Z,173.0833
2023-04-20T05:32:18.272Z,174.5385
2023-04-20T05:33:19.611Z,169.9231
2023-04-20T05:34:20.976Z,177.8462
2023-04-20T05:35:22.433Z,176.5385
2023-04-20T05:36:23.873Z,175.3846
2023-04-20T05:37:25.166Z,179.3846
2023-04-20T05:38:26.590Z,181.1538
2023-04-20T05:39:28.141Z,185.3846
2023-04-20T05:40:29.571Z,183.3846
2023-04-20T05:41:30.998Z,183.7692
2023-04-20T05:42:32.451Z,178.9231
2023-04-20T05:43:33.809Z,174.6923
2023-04-20T05:44:35.251Z,175.4615
2023-04-20T05:45:36.736Z,175.6154
2023-04-20T05:46:38.113Z,178.3846
2023-04-20T05:47:39.669Z,179.6154
2023-04-20T05:48:40.933Z,183.1538
2023-04-20T05:49:42.444Z,186.5385
2023-04-20T05:50:43.893Z,177.6154
2023-04-20T05:51:45.318Z,179.7692
2023-04-20T05:52:46.808Z,181.5385
2023-04-20T05:53:48.207Z,188.0000
2023-04-20T05:54:49.541Z,185.0769
2023-04-20T05:55:50.979Z,180.2308
2023-04-20T05:56:52.506Z,182.0769
2023-04-20T05:57:53.911Z,187.1538
2023-04-20T05:58:55.399Z,187.5385
2023-04-20T05:59:56.815Z,186.0769
2023-04-20T06:00:58.198Z,180.0769
2023-04-20T06:01:59.728Z,176.0769
2023-04-20T06:03:01.309Z,193.0000
2023-04-20T06:04:02.879Z,195.7692
2023-04-20T06:05:03.928Z,195.0769
2023-04-20T06:06:05.415Z,182.9231
2023-04-20T06:07:06.805Z,178.3846
2023-04-20T06:08:08.259Z,179.7692
2023-04-20T06:09:09.696Z,191.0769
2023-04-20T06:10:11.113Z,195.4615
2023-04-20T06:11:12.469Z,195.8462
2023-04-20T06:12:13.945Z,196.0769
2023-04-20T06:13:15.412Z,188.3077
2023-04-20T06:14:17.273Z,180.1538
2023-04-20T06:15:18.218Z,190.4615
2023-04-20T06:16:19.688Z,197.1538
2023-04-20T06:17:21.091Z,202.6923
2023-04-20T06:18:22.594Z,192.8462
2023-04-20T06:19:23.994Z,187.7692
2023-04-20T06:20:25.409Z,183.0769
2023-04-20T06:21:26.837Z,194.6923
2023-04-20T06:22:28.288Z,202.1538
2023-04-20T06:23:29.630Z,205.7692
2023-04-20T06:24:31.039Z,198.5385
2023-04-20T06:25:32.492Z,192.5385
2023-04-20T06:26:33.850Z,188.7692
2023-04-20T06:27:35.376Z,194.3846
2023-04-20T06:28:36.844Z,203.7692
2023-04-20T06:29:38.319Z,201.1538
2023-04-20T06:30:39.568Z,198.4615
2023-04-20T06:31:41.137Z,192.5385
2023-04-20T06:32:42.552Z,182.6923
2023-04-20T06:33:43.925Z,196.4615
2023-04-20T06:34:45.413Z,200.6154
2023-04-20T06:35:46.777Z,207.9231
2023-04-20T06:36:48.198Z,198.5385
2023-04-20T06:37:49.665Z,193.6154
2023-04-20T06:38:51.038Z,182.4615
2023-04-20T06:39:52.559Z,189.9231
2023-04-20T06:40:53.956Z,205.2308
2023-04-20T06:41:55.345Z,209.9231
2023-04-20T06:42:56.702Z,203.7692
2023-04-20T06:43:58.241Z,198.4615
2023-04-20T06:44:59.636Z,193.3846
2023-04-20T06:46:01.085Z,194.5385
2023-04-20T06:47:02.635Z,206.4615
2023-04-20T06:48:03.954Z,203.1538
2023-04-20T06:49:05.356Z,202.3077
2023-04-20T06:50:06.854Z,194.9231
2023-04-20T06:51:08.247Z,190.3077
2023-04-20T06:52:09.618Z,195.5385
2023-04-20T06:53:11.073Z,211.8462
2023-04-20T06:54:12.524Z,201.5385
2023-04-20T06:55:13.891Z,191.9231
2023-04-20T06:56:15.263Z,199.4615
2023-04-20T06:57:16.768Z,195.3846
2023-04-20T06:58:18.168Z,202.3077
2023-04-20T06:59:19.894Z,215.6154
2023-04-20T07:00:21.094Z,214.0769
2023-04-20T07:01:22.635Z,202.1538
2023-04-20T07:02:24.031Z,193.3846
2023-04-20T07:03:25.578Z,178.3077
2023-04-20T07:04:26.817Z,202.8462
2023-04-20T07:05:28.231Z,211.2308
2023-04-20T07:06:29.570Z,205.9231
2023-04-20T07:07:31.057Z,201.6923
2023-04-20T07:08:32.449Z,194.9231
2023-04-20T07:09:33.987Z,188.9231
2023-04-20T07:10:35.362Z,203.2308
2023-04-20T07:11:36.759Z,209.6923
2023-04-20T07:12:38.540Z,204.8462
2023-04-20T07:13:39.672Z,203.7692
2023-04-20T07:14:41.111Z,194.0769
2023-04-20T07:15:42.526Z,194.7692
2023-04-20T07:16:43.899Z,209.6923
2023-04-20T07:17:45.438Z,214.3846
2023-04-20T07:18:46.850Z,210.4615
2023-04-20T07:19:48.234Z,207.6154
2023-04-20T07:20:49.658Z,203.3846
2023-04-20T07:21:51.061Z,200.0769
2023-04-20T07:22:52.497Z,214.7692
2023-04-20T07:23:53.903Z,210.7692
2023-04-20T07:24:55.404Z,204.7692
2023-04-20T07:25:56.845Z,207.8462
2023-04-20T07:26:58.171Z,191.5385
2023-04-20T07:27:59.709Z,199.0769
2023-04-20T07:29:01.081Z,212.3077
2023-04-20T07:30:02.528Z,217.2308
2023-04-20T07:31:03.887Z,209.0769
2023-04-20T07:32:05.385Z,198.6923
2023-04-20T07:33:06.805Z,195.6923
2023-04-20T07:34:08.246Z,202.0769
2023-04-20T07:35:09.703Z,219.0769
2023-04-20T07:36:11.040Z,213.7692
2023-04-20T07:37:12.524Z,201.8462
2023-04-20T07:38:13.982Z,195.3077
2023-04-20T07:39:15.697Z,192.1538
2023-04-20T07:40:16.848Z,207.2308
2023-04-20T07:41:18.323Z,221.4615
2023-04-20T07:42:19.644Z,206.3846
2023-04-20T07:43:21.125Z,202.7692
2023-04-20T07:44:22.503Z,190.3846
2023-04-20T07:45:24.014Z,195.4615
2023-04-20T07:46:25.425Z,212.1538
2023-04-20T07:47:26.855Z,214.9231
2023-04-20T07:48:28.267Z,210.8462
2023-04-20T07:49:29.720Z,206.6154
2023-04-20T07:50:31.219Z,187.2308
2023-04-20T07:51:32.656Z,202.1538
2023-04-20T07:52:33.896Z,224.7692
2023-04-20T07:53:35.455Z,219.3846
2023-04-20T07:54:36.855Z,210.3846
2023-04-20T07:55:38.278Z,206.6923
2023-04-20T07:56:39.749Z,198.3077
2023-04-20T07:57:41.086Z,205.8462
2023-04-20T07:58:42.510Z,218.3846
2023-04-20T07:59:43.995Z,221.6154
2023-04-20T08:00:45.398Z,216.7692
2023-04-20T08:01:46.840Z,206.6923
2023-04-20T08:02:48.307Z,200.6923
2023-04-20T08:03:49.850Z,210.3846
2023-04-20T08:04:51.396Z,224.0769
2023-04-20T08:05:52.563Z,220.3077
2023-04-20T08:06:53.944Z,214.1538
2023-04-20T08:07:55.315Z,206.4615
2023-04-20T08:08:56.794Z,207.0769
2023-04-20T08:09:58.197Z,221.6923
2023-04-20T08:10:59.685Z,220.8462
2023-04-20T08:12:01.135Z,212.4615
2023-04-20T08:13:02.545Z,214.5385
2023-04-20T08:14:04.037Z,208.0000
2023-04-20T08:15:05.360Z,220.6154
2023-04-20T08:16:07.562Z,223.5385
2023-04-20T08:17:08.192Z,220.0769
2023-04-20T08:18:09.624Z,212.7692
2023-04-20T08:19:11.020Z,206.8462
2023-04-20T08:20:12.476Z,198.1538
2023-04-20T08:21:14.014Z,217.9231
2023-04-20T08:22:15.406Z,224.6923
2023-04-20T08:23:16.730Z,219.3077
2023-04-20T08:24:18.480Z,222.1538
2023-04-20T08:25:19.546Z,207.0000
2023-04-20T08:26:21.157Z,209.8462
2023-04-20T08:27:22.484Z,222.0769
2023-04-20T08:28:33.426Z,228.6154
2023-04-20T08:29:25.289Z,223.2500
2023-04-20T08:30:26.740Z,219.7692
2023-04-20T08:31:28.292Z,220.5385
2023-04-20T08:32:29.686Z,220.2308
2023-04-20T08:33:31.019Z,230.0769
2023-04-20T08:34:32.450Z,229.3077
2023-04-20T08:35:33.866Z,219.0000
2023-04-20T08:36:35.267Z,213.9231
2023-04-20T08:37:36.768Z,211.3077
2023-04-20T08:38:38.124Z,231.1538
2023-04-20T08:39:39.636Z,231.6923
2023-04-20T08:40:40.936Z,222.7692
2023-04-20T08:41:42.457Z,221.3846
2023-04-20T08:42:43.856Z,219.6923
2023-04-20T08:43:45.298Z,224.3077
2023-04-20T08:44:46.753Z,236.4615
2023-04-20T08:45:48.122Z,224.8462
2023-04-20T08:46:49.603Z,222.5385
2023-04-20T08:47:51.050Z,221.3077
2023-04-20T08:48:52.248Z,228.6923
2023-04-20T08:49:53.786Z,233.6154
2023-04-20T08:50:55.269Z,232.7692
2023-04-20T08:51:56.685Z,224.0769
2023-04-20T08:52:58.089Z,227.0000
2023-04-20T08:53:59.537Z,209.9231
2023-04-20T08:55:00.848Z,220.6923
2023-04-20T08:56:02.399Z,233.5385
2023-04-20T08:57:03.868Z,227.7692
2023-04-20T08:58:05.279Z,224.4615
2023-04-20T08:59:06.602Z,214.6923
2023-04-20T09:00:08.070Z,219.6154
2023-04-20T09:01:09.617Z,234.5385
2023-04-20T09:02:11.136Z,238.5385
2023-04-20T09:03:12.569Z,233.3846
2023-04-20T09:04:14.069Z,217.8462
2023-04-20T09:05:15.215Z,217.7692
2023-04-20T09:06:16.621Z,210.7692
2023-04-20T09:07:18.041Z,225.9231
2023-04-20T09:08:19.524Z,239.8462
2023-04-20T09:09:20.900Z,219.6154
2023-04-20T09:10:22.397Z,212.4615
2023-04-20T09:11:23.731Z,205.5385
2023-04-20T09:12:25.313Z,215.8462
2023-04-20T09:13:26.696Z,229.0769
2023-04-20T09:14:28.052Z,228.1538
2023-04-20T09:15:29.888Z,212.4615
2023-04-20T09:16:30.934Z,201.2308
2023-04-20T09:17:32.411Z,202.2308
2023-04-20T09:18:33.811Z,216.6923
2023-04-20T09:19:35.182Z,222.0000
2023-04-20T09:20:36.610Z,217.3846
2023-04-20T09:21:38.015Z,206.9231
2023-04-20T09:22:39.516Z,191.3077
2023-04-20T09:23:40.896Z,198.7692
2023-04-20T09:24:42.237Z,211.5385
2023-04-20T09:25:43.756Z,219.6923
2023-04-20T09:26:45.257Z,215.3077
2023-04-20T09:27:46.599Z,196.9231
